sensor_id;sensor_type;location;lat;lon;timestamp;pressure;altitude;pressure_sealevel;temperature;humidity
36380;BME280;22411;53.016;18.632;2022-10-16T00:01:59;100549.44;;;14.16;100.00
36380;BME280;22411;53.016;18.632;2022-10-16T00:04:25;100555.47;;;14.16;100.00
36380;BME280;22411;53.016;18.632;2022-10-16T00:06:51;100554.88;;;14.12;100.00
36380;BME280;22411;53.016;18.632;2022-10-16T00:09:17;100551.44;;;14.12;100.00
36380;BME280;22411;53.016;18.632;2022-10-16T00:11:43;100558.44;;;14.11;100.00
36380;BME280;22411;53.016;18.632;2022-10-16T00:14:12;100561.44;;;14.07;100.00
36380;BME280;22411;53.016;18.632;2022-10-16T00:16:38;100565.25;;;14.03;100.00
36380;BME280;22411;53.016;18.632;2022-10-16T00:19:04;100569.63;;;14.02;100.00
36380;BME280;22411;53.016;18.632;2022-10-16T00:21:31;100569.75;;;14.01;100.00
36380;BME280;22411;53.016;18.632;2022-10-16T00:24:00;100581.25;;;13.98;100.00
36380;BME280;22411;53.016;18.632;2022-10-16T00:26:28;100582.09;;;13.99;100.00
36380;BME280;22411;53.016;18.632;2022-10-16T00:28:54;100585.19;;;13.93;100.00
36380;BME280;22411;53.016;18.632;2022-10-16T00:31:21;100581.31;;;13.87;100.00
36380;BME280;22411;53.016;18.632;2022-10-16T00:33:47;100581.69;;;13.82;100.00
36380;BME280;22411;53.016;18.632;2022-10-16T00:36:16;100580.41;;;13.77;100.00
36380;BME280;22411;53.016;18.632;2022-10-16T00:38:43;100583.94;;;13.76;100.00
36380;BME280;22411;53.016;18.632;2022-10-16T00:41:15;100579.34;;;13.68;100.00
36380;BME280;22411;53.016;18.632;2022-10-16T00:43:50;100575.69;;;13.59;100.00
36380;BME280;22411;53.016;18.632;2022-10-16T00:46:25;100575.94;;;13.56;100.00
36380;BME280;22411;53.016;18.632;2022-10-16T00:51:39;100588.28;;;13.43;100.00
36380;BME280;22411;53.016;18.632;2022-10-16T00:54:13;100598.13;;;13.40;100.00
36380;BME280;22411;53.016;18.632;2022-10-16T00:56:40;100593.50;;;13.32;100.00
36380;BME280;22411;53.016;18.632;2022-10-16T00:59:20;100586.19;;;13.26;100.00
36380;BME280;22411;53.016;18.632;2022-10-16T01:01:48;100584.97;;;13.19;100.00
36380;BME280;22411;53.016;18.632;2022-10-16T01:04:14;100592.78;;;13.19;100.00
36380;BME280;22411;53.016;18.632;2022-10-16T01:12:05;100578.25;;;12.94;100.00
36380;BME280;22411;53.016;18.632;2022-10-16T01:14:40;100585.69;;;12.87;100.00
36380;BME280;22411;53.016;18.632;2022-10-16T01:20:14;100591.59;;;12.78;100.00
36380;BME280;22411;53.016;18.632;2022-10-16T01:25:39;100591.31;;;12.70;100.00
36380;BME280;22411;53.016;18.632;2022-10-16T01:28:13;100598.44;;;12.68;100.00
36380;BME280;22411;53.016;18.632;2022-10-16T01:30:42;100590.84;;;12.65;100.00
36380;BME280;22411;53.016;18.632;2022-10-16T01:33:17;100590.03;;;12.64;100.00
36380;BME280;22411;53.016;18.632;2022-10-16T01:35:53;100587.41;;;12.64;100.00
36380;BME280;22411;53.016;18.632;2022-10-16T01:38:26;100591.66;;;12.65;100.00
36380;BME280;22411;53.016;18.632;2022-10-16T01:41:00;100605.41;;;12.67;100.00
36380;BME280;22411;53.016;18.632;2022-10-16T01:44:01;100599.03;;;12.71;100.00
36380;BME280;22411;53.016;18.632;2022-10-16T01:46:25;100594.53;;;12.73;100.00
36380;BME280;22411;53.016;18.632;2022-10-16T01:48:52;100604.09;;;12.73;100.00
36380;BME280;22411;53.016;18.632;2022-10-16T01:51:19;100596.19;;;12.74;100.00
36380;BME280;22411;53.016;18.632;2022-10-16T01:53:49;100614.88;;;12.79;100.00
36380;BME280;22411;53.016;18.632;2022-10-16T01:56:17;100608.97;;;12.77;100.00
36380;BME280;22411;53.016;18.632;2022-10-16T01:58:48;100615.94;;;12.77;100.00
36380;BME280;22411;53.016;18.632;2022-10-16T02:01:15;100621.16;;;12.77;100.00
36380;BME280;22411;53.016;18.632;2022-10-16T02:03:42;100620.41;;;12.75;100.00
36380;BME280;22411;53.016;18.632;2022-10-16T02:06:09;100616.03;;;12.75;100.00
36380;BME280;22411;53.016;18.632;2022-10-16T02:08:36;100618.41;;;12.78;100.00
36380;BME280;22411;53.016;18.632;2022-10-16T02:11:02;100607.06;;;12.79;100.00
36380;BME280;22411;53.016;18.632;2022-10-16T02:13:37;100617.59;;;12.78;100.00
36380;BME280;22411;53.016;18.632;2022-10-16T02:16:04;100611.78;;;12.74;100.00
36380;BME280;22411;53.016;18.632;2022-10-16T02:18:30;100598.78;;;12.74;100.00
36380;BME280;22411;53.016;18.632;2022-10-16T02:21:13;100601.50;;;12.73;100.00
36380;BME280;22411;53.016;18.632;2022-10-16T02:23:53;100600.81;;;12.71;100.00
36380;BME280;22411;53.016;18.632;2022-10-16T02:26:37;100598.56;;;12.66;100.00
36380;BME280;22411;53.016;18.632;2022-10-16T02:29:08;100598.56;;;12.66;100.00
36380;BME280;22411;53.016;18.632;2022-10-16T02:31:41;100602.94;;;12.66;100.00
36380;BME280;22411;53.016;18.632;2022-10-16T02:34:11;100603.84;;;12.65;100.00
36380;BME280;22411;53.016;18.632;2022-10-16T02:36:39;100602.94;;;12.66;100.00
36380;BME280;22411;53.016;18.632;2022-10-16T02:39:06;100601.25;;;12.65;100.00
36380;BME280;22411;53.016;18.632;2022-10-16T02:41:33;100603.75;;;12.66;100.00
36380;BME280;22411;53.016;18.632;2022-10-16T02:44:00;100605.28;;;12.69;100.00
36380;BME280;22411;53.016;18.632;2022-10-16T02:46:25;100601.97;;;12.67;100.00
36380;BME280;22411;53.016;18.632;2022-10-16T02:48:51;100602.81;;;12.67;100.00
36380;BME280;22411;53.016;18.632;2022-10-16T02:51:17;100601.16;;;12.66;100.00
36380;BME280;22411;53.016;18.632;2022-10-16T02:53:43;100598.66;;;12.65;100.00
36380;BME280;22411;53.016;18.632;2022-10-16T02:56:09;100602.94;;;12.66;100.00
36380;BME280;22411;53.016;18.632;2022-10-16T02:58:35;100600.41;;;12.64;100.00
36380;BME280;22411;53.016;18.632;2022-10-16T03:01:01;100602.19;;;12.64;100.00
36380;BME280;22411;53.016;18.632;2022-10-16T03:03:27;100601.16;;;12.66;100.00
36380;BME280;22411;53.016;18.632;2022-10-16T03:05:53;100596.16;;;12.63;100.00
36380;BME280;22411;53.016;18.632;2022-10-16T03:08:19;100597.13;;;12.62;100.00
36380;BME280;22411;53.016;18.632;2022-10-16T03:10:49;100599.72;;;12.62;100.00
36380;BME280;22411;53.016;18.632;2022-10-16T03:13:16;100596.28;;;12.62;100.00
36380;BME280;22411;53.016;18.632;2022-10-16T03:15:41;100586.47;;;12.65;100.00
36380;BME280;22411;53.016;18.632;2022-10-16T03:18:07;100594.28;;;12.65;100.00
36380;BME280;22411;53.016;18.632;2022-10-16T03:20:33;100595.22;;;12.64;100.00
36380;BME280;22411;53.016;18.632;2022-10-16T03:23:01;100591.66;;;12.65;100.00
36380;BME280;22411;53.016;18.632;2022-10-16T03:25:27;100594.19;;;12.67;100.00
36380;BME280;22411;53.016;18.632;2022-10-16T03:27:53;100602.81;;;12.67;100.00
36380;BME280;22411;53.016;18.632;2022-10-16T03:30:19;100605.28;;;12.69;100.00
36380;BME280;22411;53.016;18.632;2022-10-16T03:32:46;100614.72;;;12.70;100.00
36380;BME280;22411;53.016;18.632;2022-10-16T03:35:12;100611.91;;;12.73;100.00
36380;BME280;22411;53.016;18.632;2022-10-16T03:37:38;100609.31;;;12.73;100.00
36380;BME280;22411;53.016;18.632;2022-10-16T03:40:04;100609.19;;;12.74;100.00
36380;BME280;22411;53.016;18.632;2022-10-16T03:42:31;100610.63;;;12.78;100.00
36380;BME280;22411;53.016;18.632;2022-10-16T03:44:56;100612.03;;;12.82;100.00
36380;BME280;22411;53.016;18.632;2022-10-16T03:47:22;100614.41;;;12.86;100.00
36380;BME280;22411;53.016;18.632;2022-10-16T03:49:49;100612.63;;;12.86;100.00
36380;BME280;22411;53.016;18.632;2022-10-16T03:52:16;100623.03;;;12.86;100.00
36380;BME280;22411;53.016;18.632;2022-10-16T03:54:42;100621.97;;;12.89;100.00
36380;BME280;22411;53.016;18.632;2022-10-16T03:57:08;100625.41;;;12.89;100.00
36380;BME280;22411;53.016;18.632;2022-10-16T03:59:33;100625.06;;;12.94;100.00
36380;BME280;22411;53.016;18.632;2022-10-16T04:01:59;100623.97;;;12.96;100.00
36380;BME280;22411;53.016;18.632;2022-10-16T04:04:25;100617.00;;;12.97;100.00
36380;BME280;22411;53.016;18.632;2022-10-16T04:06:51;100622.22;;;12.97;100.00
36380;BME280;22411;53.016;18.632;2022-10-16T04:09:17;100617.13;;;12.95;100.00
36380;BME280;22411;53.016;18.632;2022-10-16T04:11:43;100624.59;;;13.00;100.00
36380;BME280;22411;53.016;18.632;2022-10-16T04:14:08;100635.00;;;13.00;100.00
36380;BME280;22411;53.016;18.632;2022-10-16T04:16:34;100631.44;;;13.01;100.00
36380;BME280;22411;53.016;18.632;2022-10-16T04:19:00;100638.06;;;13.05;100.00
36380;BME280;22411;53.016;18.632;2022-10-16T04:21:26;100644.81;;;13.07;100.00
36380;BME280;22411;53.016;18.632;2022-10-16T04:23:52;100647.53;;;13.06;100.00
36380;BME280;22411;53.016;18.632;2022-10-16T04:26:18;100648.13;;;13.09;100.00
36380;BME280;22411;53.016;18.632;2022-10-16T04:28:43;100650.97;;;13.06;100.00
36380;BME280;22411;53.016;18.632;2022-10-16T04:31:09;100637.94;;;13.06;100.00
36380;BME280;22411;53.016;18.632;2022-10-16T04:33:35;100642.09;;;13.09;100.00
36380;BME280;22411;53.016;18.632;2022-10-16T04:36:02;100639.38;;;13.11;100.00
36380;BME280;22411;53.016;18.632;2022-10-16T04:38:29;100640.19;;;13.11;100.00
36380;BME280;22411;53.016;18.632;2022-10-16T04:40:55;100635.72;;;13.13;100.00
36380;BME280;22411;53.016;18.632;2022-10-16T04:43:21;100643.53;;;13.13;100.00
36380;BME280;22411;53.016;18.632;2022-10-16T04:45:47;100641.75;;;13.14;100.00
36380;BME280;22411;53.016;18.632;2022-10-16T04:48:16;100641.28;;;13.08;100.00
36380;BME280;22411;53.016;18.632;2022-10-16T04:50:41;100639.38;;;13.11;100.00
36380;BME280;22411;53.016;18.632;2022-10-16T04:53:07;100648.00;;;13.11;100.00
36380;BME280;22411;53.016;18.632;2022-10-16T04:55:34;100641.28;;;13.08;100.00
36380;BME280;22411;53.016;18.632;2022-10-16T04:58:00;100647.19;;;13.11;100.00
36380;BME280;22411;53.016;18.632;2022-10-16T05:00:26;100649.78;;;13.11;100.00
36380;BME280;22411;53.016;18.632;2022-10-16T05:02:52;100655.59;;;13.14;100.00
36380;BME280;22411;53.016;18.632;2022-10-16T05:05:18;100660.44;;;13.19;100.00
36380;BME280;22411;53.016;18.632;2022-10-16T05:07:47;100657.63;;;13.22;100.00
36380;BME280;22411;53.016;18.632;2022-10-16T05:10:13;100660.00;;;13.25;100.00
36380;BME280;22411;53.016;18.632;2022-10-16T05:12:39;100666.38;;;13.32;100.00
36380;BME280;22411;53.016;18.632;2022-10-16T05:15:05;100660.94;;;13.35;100.00
36380;BME280;22411;53.016;18.632;2022-10-16T05:17:31;100662.59;;;13.36;100.00
36380;BME280;22411;53.016;18.632;2022-10-16T05:19:57;100674.91;;;13.34;100.00
36380;BME280;22411;53.016;18.632;2022-10-16T05:22:23;100675.63;;;13.36;100.00
36380;BME280;22411;53.016;18.632;2022-10-16T05:24:49;100680.81;;;13.36;100.00
36380;BME280;22411;53.016;18.632;2022-10-16T05:27:15;100686.97;;;13.35;100.00
36380;BME280;22411;53.016;18.632;2022-10-16T05:29:45;100690.41;;;13.36;100.00
36380;BME280;22411;53.016;18.632;2022-10-16T05:32:13;100690.53;;;13.34;100.00
36380;BME280;22411;53.016;18.632;2022-10-16T05:34:39;100693.50;;;13.41;100.00
36380;BME280;22411;53.016;18.632;2022-10-16T05:37:05;100693.50;;;13.41;100.00
36380;BME280;22411;53.016;18.632;2022-10-16T05:39:31;100709.00;;;13.42;100.00
36380;BME280;22411;53.016;18.632;2022-10-16T05:41:57;100704.25;;;13.47;100.00
36380;BME280;22411;53.016;18.632;2022-10-16T05:44:23;100710.06;;;13.51;100.00
36380;BME280;22411;53.016;18.632;2022-10-16T05:46:49;100703.19;;;13.50;100.00
36380;BME280;22411;53.016;18.632;2022-10-16T05:49:15;100705.69;;;13.51;100.00
36380;BME280;22411;53.016;18.632;2022-10-16T05:51:41;100693.81;;;13.58;100.00
36380;BME280;22411;53.016;18.632;2022-10-16T05:54:08;100697.25;;;13.59;100.00
36380;BME280;22411;53.016;18.632;2022-10-16T05:56:34;100697.16;;;13.60;100.00
36380;BME280;22411;53.016;18.632;2022-10-16T05:59:00;100718.00;;;13.60;100.00
36380;BME280;22411;53.016;18.632;2022-10-16T06:01:25;100723.53;;;13.67;100.00
36380;BME280;22411;53.016;18.632;2022-10-16T06:03:51;100723.69;;;13.66;100.00
36380;BME280;22411;53.016;18.632;2022-10-16T06:06:20;100734.53;;;13.71;100.00
36380;BME280;22411;53.016;18.632;2022-10-16T06:08:47;100721.97;;;13.76;100.00
36380;BME280;22411;53.016;18.632;2022-10-16T06:11:18;100729.34;;;13.82;100.00
36380;BME280;22411;53.016;18.632;2022-10-16T06:13:49;100723.66;;;13.77;100.00
36380;BME280;22411;53.016;18.632;2022-10-16T06:16:15;100711.56;;;13.76;100.00
36380;BME280;22411;53.016;18.632;2022-10-16T06:18:41;100708.72;;;13.79;100.00
36380;BME280;22411;53.016;18.632;2022-10-16T06:21:09;100706.81;;;13.81;100.00
36380;BME280;22411;53.016;18.632;2022-10-16T06:23:36;100701.38;;;13.84;100.00
36380;BME280;22411;53.016;18.632;2022-10-16T06:26:10;100703.84;;;13.85;100.00
36380;BME280;22411;53.016;18.632;2022-10-16T06:28:37;100711.78;;;13.95;100.00
36380;BME280;22411;53.016;18.632;2022-10-16T06:31:04;100719.22;;;14.00;100.00
36380;BME280;22411;53.016;18.632;2022-10-16T06:33:31;100715.09;;;14.08;100.00
36380;BME280;22411;53.016;18.632;2022-10-16T06:38:32;100723.75;;;14.41;100.00
36380;BME280;22411;53.016;18.632;2022-10-16T06:40:58;100716.59;;;14.54;100.00
36380;BME280;22411;53.016;18.632;2022-10-16T06:43:25;100721.38;;;14.70;100.00
36380;BME280;22411;53.016;18.632;2022-10-16T06:45:54;100723.50;;;14.76;100.00
36380;BME280;22411;53.016;18.632;2022-10-16T06:48:23;100731.31;;;14.76;100.00
36380;BME280;22411;53.016;18.632;2022-10-16T06:51:03;100734.31;;;14.72;100.00
36380;BME280;22411;53.016;18.632;2022-10-16T06:53:32;100735.84;;;14.74;100.00
36380;BME280;22411;53.016;18.632;2022-10-16T06:56:09;100749.47;;;14.78;100.00
36380;BME280;22411;53.016;18.632;2022-10-16T06:58:37;100753.72;;;14.79;100.00
36380;BME280;22411;53.016;18.632;2022-10-16T07:01:04;100756.09;;;14.82;100.00
36380;BME280;22411;53.016;18.632;2022-10-16T07:03:30;100755.38;;;14.80;100.00
36380;BME280;22411;53.016;18.632;2022-10-16T07:05:56;100750.16;;;14.80;100.00
36380;BME280;22411;53.016;18.632;2022-10-16T07:08:22;100766.28;;;14.85;100.00
36380;BME280;22411;53.016;18.632;2022-10-16T07:10:48;100761.06;;;14.85;100.00
36380;BME280;22411;53.016;18.632;2022-10-16T07:13:14;100755.97;;;14.83;100.00
36380;BME280;22411;53.016;18.632;2022-10-16T07:15:41;100765.44;;;14.84;100.00
36380;BME280;22411;53.016;18.632;2022-10-16T07:18:08;100767.41;;;14.92;100.00
36380;BME280;22411;53.016;18.632;2022-10-16T07:20:37;100766.94;;;14.98;100.00
36380;BME280;22411;53.016;18.632;2022-10-16T07:23:03;100766.56;;;15.03;100.00
36380;BME280;22411;53.016;18.632;2022-10-16T07:25:29;100757.88;;;15.02;100.00
36380;BME280;22411;53.016;18.632;2022-10-16T07:27:56;100763.53;;;15.07;100.00
36380;BME280;22411;53.016;18.632;2022-10-16T07:30:22;100757.56;;;15.16;100.00
36380;BME280;22411;53.016;18.632;2022-10-16T07:32:48;100774.94;;;15.27;100.00
36380;BME280;22411;53.016;18.632;2022-10-16T07:35:14;100775.00;;;15.37;100.00
36380;BME280;22411;53.016;18.632;2022-10-16T07:37:44;100776.78;;;15.36;100.00
36380;BME280;22411;53.016;18.632;2022-10-16T07:40:11;100773.47;;;15.34;100.00
36380;BME280;22411;53.016;18.632;2022-10-16T07:42:38;100771.94;;;15.32;100.00
36380;BME280;22411;53.016;18.632;2022-10-16T07:45:04;100775.91;;;15.26;100.00
36380;BME280;22411;53.016;18.632;2022-10-16T07:47:30;100795.13;;;15.25;100.00
36380;BME280;22411;53.016;18.632;2022-10-16T07:49:56;100789.78;;;15.27;100.00
36380;BME280;22411;53.016;18.632;2022-10-16T07:52:22;100800.41;;;15.35;100.00
36380;BME280;22411;53.016;18.632;2022-10-16T07:54:48;100796.56;;;15.39;100.00
36380;BME280;22411;53.016;18.632;2022-10-16T07:57:14;100791.69;;;15.46;100.00
36380;BME280;22411;53.016;18.632;2022-10-16T07:59:45;100799.25;;;15.49;100.00
36380;BME280;22411;53.016;18.632;2022-10-16T08:02:13;100796.81;;;15.57;100.00
36380;BME280;22411;53.016;18.632;2022-10-16T08:04:39;100790.25;;;15.62;100.00
36380;BME280;22411;53.016;18.632;2022-10-16T08:07:07;100804.31;;;15.71;100.00
36380;BME280;22411;53.016;18.632;2022-10-16T08:09:33;100801.50;;;15.84;100.00
36380;BME280;22411;53.016;18.632;2022-10-16T08:11:59;100792.22;;;16.01;100.00
36380;BME280;22411;53.016;18.632;2022-10-16T08:14:25;100803.69;;;16.19;100.00
36380;BME280;22411;53.016;18.632;2022-10-16T08:16:51;100801.50;;;16.34;100.00
36380;BME280;22411;53.016;18.632;2022-10-16T08:19:17;100813.41;;;16.57;100.00
36380;BME280;22411;53.016;18.632;2022-10-16T08:21:47;100809.97;;;16.66;100.00
36380;BME280;22411;53.016;18.632;2022-10-16T08:24:13;100820.84;;;16.62;100.00
36380;BME280;22411;53.016;18.632;2022-10-16T08:26:39;100823.88;;;16.57;100.00
36380;BME280;22411;53.016;18.632;2022-10-16T08:29:05;100828.41;;;16.65;100.00
36380;BME280;22411;53.016;18.632;2022-10-16T08:31:31;100814.25;;;16.67;100.00
36380;BME280;22411;53.016;18.632;2022-10-16T08:33:57;100815.63;;;16.81;100.00
36380;BME280;22411;53.016;18.632;2022-10-16T08:36:23;100816.75;;;16.98;100.00
36380;BME280;22411;53.016;18.632;2022-10-16T08:38:50;100814.38;;;17.24;100.00
36380;BME280;22411;53.016;18.632;2022-10-16T08:47:22;100829.59;;;18.32;100.00
36380;BME280;22411;53.016;18.632;2022-10-16T08:50:02;100844.59;;;18.85;100.00
36380;BME280;22411;53.016;18.632;2022-10-16T08:52:35;100844.69;;;19.37;100.00
36380;BME280;22411;53.016;18.632;2022-10-16T08:55:04;100848.63;;;20.86;100.00
36380;BME280;22411;53.016;18.632;2022-10-16T08:57:31;100851.03;;;22.56;100.00
36380;BME280;22411;53.016;18.632;2022-10-16T09:00:05;100850.97;;;24.00;100.00
36380;BME280;22411;53.016;18.632;2022-10-16T09:02:45;100848.94;;;25.11;100.00
36380;BME280;22411;53.016;18.632;2022-10-16T09:14:06;100847.63;;;25.91;93.45
36380;BME280;22411;53.016;18.632;2022-10-16T09:21:35;100850.59;;;20.92;100.00
36380;BME280;22411;53.016;18.632;2022-10-16T09:24:18;100841.00;;;20.50;100.00
36380;BME280;22411;53.016;18.632;2022-10-16T09:26:45;100843.84;;;20.57;100.00
36380;BME280;22411;53.016;18.632;2022-10-16T09:29:13;100844.44;;;20.08;100.00
36380;BME280;22411;53.016;18.632;2022-10-16T09:31:41;100849.63;;;19.84;100.00
36380;BME280;22411;53.016;18.632;2022-10-16T09:34:32;100848.53;;;20.03;100.00
36380;BME280;22411;53.016;18.632;2022-10-16T09:37:03;100849.72;;;19.74;100.00
36380;BME280;22411;53.016;18.632;2022-10-16T09:39:29;100846.09;;;19.67;100.00
36380;BME280;22411;53.016;18.632;2022-10-16T09:41:56;100835.06;;;19.72;100.00
36380;BME280;22411;53.016;18.632;2022-10-16T09:44:30;100833.72;;;19.94;100.00
36380;BME280;22411;53.016;18.632;2022-10-16T09:47:15;100841.44;;;19.95;100.00
36380;BME280;22411;53.016;18.632;2022-10-16T09:50:05;100842.34;;;19.78;100.00
36380;BME280;22411;53.016;18.632;2022-10-16T09:52:44;100858.31;;;19.58;100.00
36380;BME280;22411;53.016;18.632;2022-10-16T09:55:16;100844.41;;;19.66;100.00
36380;BME280;22411;53.016;18.632;2022-10-16T09:57:52;100844.59;;;19.47;100.00
36380;BME280;22411;53.016;18.632;2022-10-16T10:00:20;100843.50;;;19.31;100.00
36380;BME280;22411;53.016;18.632;2022-10-16T10:02:47;100848.31;;;19.36;100.00
36380;BME280;22411;53.016;18.632;2022-10-16T10:05:25;100847.50;;;19.36;100.00
36380;BME280;22411;53.016;18.632;2022-10-16T10:08:17;100843.91;;;19.45;100.00
36380;BME280;22411;53.016;18.632;2022-10-16T10:10:48;100848.75;;;20.60;100.00
36380;BME280;22411;53.016;18.632;2022-10-16T10:13:22;100857.03;;;23.56;100.00
36380;BME280;22411;53.016;18.632;2022-10-16T10:15:50;100852.34;;;23.96;100.00
36380;BME280;22411;53.016;18.632;2022-10-16T10:18:20;100851.19;;;22.62;100.00
36380;BME280;22411;53.016;18.632;2022-10-16T10:20:59;100846.59;;;21.78;100.00
36380;BME280;22411;53.016;18.632;2022-10-16T10:23:27;100856.22;;;21.54;100.00
36380;BME280;22411;53.016;18.632;2022-10-16T10:28:55;100854.41;;;22.02;100.00
36380;BME280;22411;53.016;18.632;2022-10-16T10:31:49;100860.97;;;21.59;100.00
36380;BME280;22411;53.016;18.632;2022-10-16T10:35:12;100855.53;;;20.71;100.00
36380;BME280;22411;53.016;18.632;2022-10-16T10:37:39;100849.63;;;20.26;100.00
36380;BME280;22411;53.016;18.632;2022-10-16T10:40:32;100858.34;;;20.35;100.00
36380;BME280;22411;53.016;18.632;2022-10-16T10:45:43;100847.13;;;22.75;100.00
36380;BME280;22411;53.016;18.632;2022-10-16T10:51:05;100849.69;;;22.37;100.00
36380;BME280;22411;53.016;18.632;2022-10-16T10:53:42;100859.16;;;21.51;100.00
36380;BME280;22411;53.016;18.632;2022-10-16T10:59:04;100869.44;;;20.04;100.00
36380;BME280;22411;53.016;18.632;2022-10-16T11:01:40;100873.31;;;19.66;100.00
36380;BME280;22411;53.016;18.632;2022-10-16T11:07:07;100877.91;;;19.20;100.00
36380;BME280;22411;53.016;18.632;2022-10-16T11:09:40;100886.91;;;19.18;100.00
36380;BME280;22411;53.016;18.632;2022-10-16T11:12:44;100891.94;;;19.11;100.00
36380;BME280;22411;53.016;18.632;2022-10-16T11:15:20;100865.97;;;19.08;100.00
36380;BME280;22411;53.016;18.632;2022-10-16T11:18:06;100884.28;;;19.18;100.00
36380;BME280;22411;53.016;18.632;2022-10-16T11:20:41;100878.34;;;19.33;100.00
36380;BME280;22411;53.016;18.632;2022-10-16T11:23:17;100869.41;;;19.96;100.00
36380;BME280;22411;53.016;18.632;2022-10-16T11:25:48;100877.38;;;20.13;100.00
36380;BME280;22411;53.016;18.632;2022-10-16T11:28:17;100884.81;;;19.65;100.00
36380;BME280;22411;53.016;18.632;2022-10-16T11:31:32;100887.28;;;19.23;100.00
36380;BME280;22411;53.016;18.632;2022-10-16T11:33:41;100877.97;;;18.93;100.00
36380;BME280;22411;53.016;18.632;2022-10-16T11:36:53;100887.44;;;18.86;100.00
36380;BME280;22411;53.016;18.632;2022-10-16T11:41:53;100897.78;;;23.09;100.00
36380;BME280;22411;53.016;18.632;2022-10-16T11:44:32;100915.56;;;26.20;98.47
36380;BME280;22411;53.016;18.632;2022-10-16T11:49:27;100905.16;;;28.63;77.86
36380;BME280;22411;53.016;18.632;2022-10-16T11:52:07;100905.22;;;25.90;92.14
36380;BME280;22411;53.016;18.632;2022-10-16T11:54:59;100901.88;;;23.72;100.00
36380;BME280;22411;53.016;18.632;2022-10-16T11:57:33;100899.19;;;21.79;100.00
36380;BME280;22411;53.016;18.632;2022-10-16T12:10:27;100874.09;;;20.53;100.00
36380;BME280;22411;53.016;18.632;2022-10-16T12:12:53;100879.06;;;20.30;100.00
36380;BME280;22411;53.016;18.632;2022-10-16T12:15:25;100890.31;;;20.06;100.00
36380;BME280;22411;53.016;18.632;2022-10-16T12:17:52;100885.34;;;19.95;100.00
36380;BME280;22411;53.016;18.632;2022-10-16T12:20:33;100872.25;;;19.77;100.00
36380;BME280;22411;53.016;18.632;2022-10-16T12:23:04;100866.78;;;19.70;100.00
36380;BME280;22411;53.016;18.632;2022-10-16T12:25:39;100866.25;;;19.67;100.00
36380;BME280;22411;53.016;18.632;2022-10-16T12:30:41;100871.00;;;19.89;100.00
36380;BME280;22411;53.016;18.632;2022-10-16T12:33:30;100876.84;;;19.75;100.00
36380;BME280;22411;53.016;18.632;2022-10-16T12:35:58;100872.50;;;19.66;100.00
36380;BME280;22411;53.016;18.632;2022-10-16T12:38:26;100877.75;;;19.66;100.00
36380;BME280;22411;53.016;18.632;2022-10-16T12:41:02;100878.94;;;19.71;100.00
36380;BME280;22411;53.016;18.632;2022-10-16T12:43:44;100877.03;;;19.81;100.00
36380;BME280;22411;53.016;18.632;2022-10-16T12:48:38;100881.56;;;19.71;100.00
36380;BME280;22411;53.016;18.632;2022-10-16T12:54:57;100885.34;;;19.51;100.00
36380;BME280;22411;53.016;18.632;2022-10-16T12:57:30;100887.28;;;19.41;100.00
36380;BME280;22411;53.016;18.632;2022-10-16T13:00:27;100898.53;;;19.33;100.00
36380;BME280;22411;53.016;18.632;2022-10-16T13:06:07;100901.94;;;19.25;100.00
36380;BME280;22411;53.016;18.632;2022-10-16T13:09:06;100911.75;;;19.23;100.00
36380;BME280;22411;53.016;18.632;2022-10-16T13:17:04;100901.25;;;19.05;100.00
36380;BME280;22411;53.016;18.632;2022-10-16T13:20:12;100887.75;;;19.00;100.00
36380;BME280;22411;53.016;18.632;2022-10-16T13:28:21;100887.97;;;18.89;100.00
36380;BME280;22411;53.016;18.632;2022-10-16T13:30:52;100881.38;;;18.85;100.00
36380;BME280;22411;53.016;18.632;2022-10-16T13:33:40;100893.81;;;18.83;100.00
36380;BME280;22411;53.016;18.632;2022-10-16T13:36:22;100907.91;;;18.82;100.00
36380;BME280;22411;53.016;18.632;2022-10-16T13:39:21;100915.66;;;18.84;100.00
36380;BME280;22411;53.016;18.632;2022-10-16T13:41:45;100902.16;;;18.78;100.00
36380;BME280;22411;53.016;18.632;2022-10-16T13:44:15;100910.16;;;18.77;100.00
36380;BME280;22411;53.016;18.632;2022-10-16T13:46:43;100915.41;;;18.77;100.00
36380;BME280;22411;53.016;18.632;2022-10-16T13:51:38;100931.41;;;18.84;100.00
36380;BME280;22411;53.016;18.632;2022-10-16T13:54:04;100928.78;;;18.84;100.00
36380;BME280;22411;53.016;18.632;2022-10-16T13:56:32;100942.31;;;18.89;100.00
36380;BME280;22411;53.016;18.632;2022-10-16T13:59:06;100936.34;;;18.87;100.00
36380;BME280;22411;53.016;18.632;2022-10-16T14:01:34;100942.16;;;18.90;100.00
36380;BME280;22411;53.016;18.632;2022-10-16T14:04:08;100942.59;;;18.86;100.00
36380;BME280;22411;53.016;18.632;2022-10-16T14:06:36;100935.09;;;18.91;100.00
36380;BME280;22411;53.016;18.632;2022-10-16T14:11:48;100936.06;;;18.90;100.00
36380;BME280;22411;53.016;18.632;2022-10-16T14:14:15;100939.41;;;18.82;100.00
36380;BME280;22411;53.016;18.632;2022-10-16T14:16:42;100947.16;;;18.84;100.00
36380;BME280;22411;53.016;18.632;2022-10-16T14:19:20;100944.28;;;18.77;100.00
36380;BME280;22411;53.016;18.632;2022-10-16T14:21:50;100953.28;;;18.74;100.00